createdAt,value
2018-02-08T00:00:14.148Z,6.90
2018-02-08T00:01:19.672Z,6.80
2018-02-08T00:02:25.199Z,8.00
2018-02-08T00:03:30.723Z,7.70
2018-02-08T00:04:36.239Z,6.50
2018-02-08T00:05:41.768Z,7.30
2018-02-08T00:06:47.291Z,6.60
2018-02-08T00:07:52.819Z,6.90
2018-02-08T00:08:58.336Z,7.50
2018-02-08T00:10:03.863Z,7.50
2018-02-08T00:11:09.396Z,8.40
2018-02-08T00:12:14.913Z,8.80
2018-02-08T00:13:20.437Z,9.30
2018-02-08T00:14:25.959Z,8.50
2018-02-08T00:15:31.479Z,8.00
2018-02-08T00:16:37.008Z,8.50
2018-02-08T00:17:42.533Z,7.60
2018-02-08T00:18:48.049Z,7.50
2018-02-08T00:19:53.575Z,8.10
2018-02-08T00:20:59.104Z,8.10
2018-02-08T00:22:04.623Z,7.60
2018-02-08T00:23:10.153Z,8.30
2018-02-08T00:24:15.667Z,8.30
2018-02-08T00:25:21.192Z,7.60
2018-02-08T00:26:26.718Z,7.60
2018-02-08T00:27:32.243Z,7.40
2018-02-08T00:28:37.766Z,7.10
2018-02-08T00:29:43.291Z,8.10
2018-02-08T00:30:48.811Z,8.20
2018-02-08T00:31:54.333Z,7.20
2018-02-08T00:32:59.858Z,7.60
2018-02-08T00:34:05.382Z,7.00
2018-02-08T00:35:10.913Z,7.50
2018-02-08T00:36:16.428Z,8.00
2018-02-08T00:37:21.952Z,7.30
2018-02-08T00:38:27.483Z,8.30
2018-02-08T00:39:33.002Z,7.50
2018-02-08T00:40:38.523Z,6.20
2018-02-08T00:41:44.046Z,7.70
2018-02-08T00:42:49.569Z,7.20
2018-02-08T00:43:55.095Z,7.20
2018-02-08T00:45:00.621Z,7.00
2018-02-08T00:46:06.151Z,8.40
2018-02-08T00:47:11.672Z,7.70
2018-02-08T00:48:17.189Z,6.80
2018-02-08T00:49:22.724Z,7.00
2018-02-08T00:50:28.236Z,7.50
2018-02-08T00:51:33.797Z,6.70
2018-02-08T00:52:39.287Z,7.90
2018-02-08T00:53:44.840Z,6.90
2018-02-08T00:54:50.331Z,7.60
2018-02-08T00:55:55.898Z,8.30
2018-02-08T00:57:01.381Z,8.60
2018-02-08T00:58:06.900Z,7.20
2018-02-08T00:59:12.425Z,8.20
2018-02-08T01:00:17.950Z,8.50
2018-02-08T01:01:23.469Z,7.50
2018-02-08T01:02:28.991Z,7.50
2018-02-08T01:03:34.519Z,7.90
2018-02-08T01:04:40.048Z,7.60
2018-02-08T01:05:45.561Z,8.60
2018-02-08T01:06:51.083Z,6.20
2018-02-08T01:07:56.609Z,7.70
2018-02-08T01:09:02.138Z,7.50
2018-02-08T01:10:07.663Z,7.60
2018-02-08T01:11:13.180Z,7.60
2018-02-08T01:12:18.706Z,7.50
2018-02-08T01:13:24.228Z,7.70
2018-02-08T01:14:29.753Z,6.90
2018-02-08T01:15:35.276Z,7.90
2018-02-08T01:16:40.796Z,7.20
2018-02-08T01:17:46.324Z,7.50
2018-02-08T01:18:51.843Z,7.50
2018-02-08T01:19:57.365Z,7.00
2018-02-08T01:21:02.905Z,7.80
2018-02-08T01:22:08.425Z,7.10
2018-02-08T01:23:13.940Z,7.10
2018-02-08T01:24:19.461Z,7.40
2018-02-08T01:25:24.988Z,6.90
2018-02-08T01:26:30.507Z,7.10
2018-02-08T01:27:36.080Z,7.10
2018-02-08T01:28:41.555Z,6.40
2018-02-08T01:29:47.081Z,6.70
2018-02-08T01:30:52.601Z,7.50
2018-02-08T01:31:58.135Z,7.00
2018-02-08T01:33:03.656Z,6.30
2018-02-08T01:34:09.186Z,7.10
2018-02-08T01:35:14.699Z,7.30
2018-02-08T01:36:20.220Z,7.50
2018-02-08T01:37:25.750Z,7.30
2018-02-08T01:38:31.266Z,6.90
2018-02-08T01:39:36.792Z,7.30
2018-02-08T01:40:42.313Z,7.30
2018-02-08T01:41:47.838Z,7.60
2018-02-08T01:42:53.363Z,7.40
2018-02-08T01:43:58.881Z,7.40
2018-02-08T01:45:04.415Z,8.20
2018-02-08T01:46:09.930Z,7.50
2018-02-08T01:47:15.456Z,7.10
2018-02-08T01:48:20.974Z,7.00
2018-02-08T01:49:26.501Z,7.80
2018-02-08T01:50:32.028Z,7.30
2018-02-08T01:51:37.545Z,7.30
2018-02-08T01:52:43.073Z,7.10
2018-02-08T01:53:48.589Z,7.30
2018-02-08T01:54:54.122Z,7.30
2018-02-08T01:55:59.643Z,8.40
2018-02-08T01:57:05.169Z,7.50
2018-02-08T01:58:10.687Z,7.80
2018-02-08T01:59:16.209Z,7.70
2018-02-08T02:00:21.733Z,7.80
2018-02-08T02:01:27.257Z,8.50
2018-02-08T02:02:32.785Z,8.70
2018-02-08T02:03:38.304Z,8.10
2018-02-08T02:04:43.826Z,7.60
2018-02-08T02:05:49.353Z,8.20
2018-02-08T02:06:54.873Z,8.60
2018-02-08T02:08:00.394Z,8.20
2018-02-08T02:09:06.006Z,8.70
2018-02-08T02:10:11.452Z,7.80
2018-02-08T02:11:16.969Z,8.00
2018-02-08T02:12:22.488Z,7.90
2018-02-08T02:13:28.016Z,8.40
2018-02-08T02:14:33.538Z,8.90
2018-02-08T02:15:39.062Z,8.30
2018-02-08T02:16:44.583Z,8.90
2018-02-08T02:17:50.105Z,9.90
2018-02-08T02:18:55.632Z,8.80
2018-02-08T02:20:01.151Z,9.30
2018-02-08T02:21:06.680Z,9.00
2018-02-08T02:22:12.202Z,9.00
2018-02-08T02:23:17.723Z,9.60
2018-02-08T02:24:23.257Z,9.30
2018-02-08T02:25:28.814Z,8.20
2018-02-08T02:26:34.294Z,8.80
2018-02-08T02:27:39.815Z,8.50
2018-02-08T02:28:45.342Z,8.90
2018-02-08T02:29:50.863Z,9.20
2018-02-08T02:30:56.391Z,9.00
2018-02-08T02:32:01.919Z,8.90
2018-02-08T02:33:07.432Z,8.90
2018-02-08T02:34:12.960Z,8.30
2018-02-08T02:35:18.528Z,8.40
2018-02-08T02:36:24.003Z,8.70
2018-02-08T02:37:29.529Z,9.20
2018-02-08T02:38:35.057Z,8.50
2018-02-08T02:39:40.570Z,8.60
2018-02-08T02:40:46.097Z,8.70
2018-02-08T02:41:51.616Z,8.80
2018-02-08T02:42:57.145Z,8.80
2018-02-08T02:44:02.664Z,10.00
2018-02-08T02:45:08.186Z,8.40
2018-02-08T02:46:13.712Z,9.30
2018-02-08T02:47:19.235Z,9.10
2018-02-08T02:48:24.765Z,8.50
2018-02-08T02:49:30.282Z,9.60
2018-02-08T02:50:35.805Z,9.90
2018-02-08T02:51:41.332Z,9.40
2018-02-08T02:52:46.853Z,10.60
2018-02-08T02:53:52.378Z,10.80
2018-02-08T02:54:57.904Z,10.30
2018-02-08T02:56:03.425Z,10.40
2018-02-08T02:57:08.948Z,11.20
2018-02-08T02:58:14.470Z,10.70
2018-02-08T02:59:19.995Z,10.60
2018-02-08T03:00:25.511Z,10.20
2018-02-08T03:01:31.039Z,11.60
2018-02-08T03:02:36.558Z,9.20
2018-02-08T03:03:42.088Z,9.50
2018-02-08T03:04:47.611Z,10.90
2018-02-08T03:05:53.129Z,11.20
2018-02-08T03:06:58.650Z,10.90
2018-02-08T03:08:04.177Z,10.50
2018-02-08T03:09:09.702Z,10.70
2018-02-08T03:10:15.221Z,9.90
2018-02-08T03:11:20.749Z,9.40
2018-02-08T03:12:26.273Z,10.00
2018-02-08T03:13:31.792Z,9.60
2018-02-08T03:14:37.315Z,7.90
2018-02-08T03:15:42.836Z,9.10
2018-02-08T03:16:48.367Z,8.50
2018-02-08T03:17:53.885Z,8.60
2018-02-08T03:18:59.405Z,7.70
2018-02-08T03:20:04.929Z,8.00
2018-02-08T03:21:10.454Z,8.60
2018-02-08T03:22:15.980Z,8.60
2018-02-08T03:23:21.505Z,8.20
2018-02-08T03:24:27.026Z,8.70
2018-02-08T03:25:32.549Z,9.70
2018-02-08T03:26:38.068Z,8.90
2018-02-08T03:27:43.592Z,8.50
2018-02-08T03:28:49.110Z,9.30
2018-02-08T03:29:54.645Z,8.90
2018-02-08T03:31:00.163Z,8.70
2018-02-08T03:32:05.682Z,8.30
2018-02-08T03:33:11.207Z,8.20
2018-02-08T03:34:16.732Z,7.90
2018-02-08T03:35:22.253Z,8.90
2018-02-08T03:36:27.779Z,8.50
2018-02-08T03:37:33.300Z,7.30
2018-02-08T03:38:38.825Z,7.50
2018-02-08T03:39:44.343Z,7.20
2018-02-08T03:40:49.868Z,8.20
2018-02-08T03:41:55.390Z,8.40
2018-02-08T03:43:00.913Z,7.20
2018-02-08T03:44:06.433Z,7.20
2018-02-08T03:45:11.962Z,7.70
2018-02-08T03:46:17.482Z,8.20
2018-02-08T03:47:23.005Z,7.30
2018-02-08T03:48:28.530Z,8.10
2018-02-08T03:49:34.051Z,7.60
2018-02-08T03:50:39.576Z,7.70
2018-02-08T03:51:45.099Z,8.40
2018-02-08T03:52:50.618Z,8.50
2018-02-08T03:53:56.144Z,7.40
2018-02-08T03:55:01.668Z,7.60
2018-02-08T03:56:07.196Z,7.90
2018-02-08T03:57:12.713Z,7.80
2018-02-08T03:58:18.236Z,7.90
2018-02-08T03:59:23.757Z,7.80
2018-02-08T04:00:29.281Z,7.00
2018-02-08T04:01:34.803Z,8.50
2018-02-08T04:02:40.334Z,7.40
2018-02-08T04:03:45.861Z,7.70
2018-02-08T04:04:51.372Z,8.30
2018-02-08T04:05:56.897Z,7.50
2018-02-08T04:07:02.425Z,8.10
2018-02-08T04:08:07.947Z,8.00
2018-02-08T04:09:13.466Z,8.20
2018-02-08T04:10:18.987Z,7.60
2018-02-08T04:11:24.511Z,8.40
2018-02-08T04:12:30.037Z,8.20
2018-02-08T04:13:35.555Z,7.50
2018-02-08T04:14:41.084Z,7.50
2018-02-08T04:15:46.604Z,8.00
2018-02-08T04:16:52.134Z,8.00
2018-02-08T04:17:57.652Z,7.70
2018-02-08T04:19:03.174Z,8.30
2018-02-08T04:20:08.694Z,8.20
2018-02-08T04:21:14.239Z,8.40
2018-02-08T04:22:19.746Z,8.40
2018-02-08T04:23:25.264Z,7.90
2018-02-08T04:24:30.787Z,8.60
2018-02-08T04:25:36.312Z,7.30
2018-02-08T04:26:41.832Z,8.80
2018-02-08T04:27:47.355Z,7.70
2018-02-08T04:28:52.883Z,7.80
2018-02-08T04:29:58.402Z,8.80
2018-02-08T04:31:03.928Z,7.70
2018-02-08T04:32:09.452Z,8.70
2018-02-08T04:33:14.971Z,9.50
2018-02-08T04:34:20.493Z,8.00
2018-02-08T04:35:26.018Z,7.60
2018-02-08T04:36:31.539Z,7.50
2018-02-08T04:37:37.063Z,8.20
2018-02-08T04:38:42.586Z,9.10
2018-02-08T04:39:48.112Z,8.80
2018-02-08T04:40:53.634Z,8.10
2018-02-08T04:41:59.155Z,8.70
2018-02-08T04:43:04.677Z,8.90
2018-02-08T04:44:10.201Z,9.20
2018-02-08T04:45:15.734Z,9.80
2018-02-08T04:46:21.250Z,8.80
2018-02-08T04:47:26.773Z,9.90
2018-02-08T04:48:32.295Z,9.40
2018-02-08T04:49:37.815Z,9.40
2018-02-08T04:50:43.351Z,9.10
2018-02-08T04:51:48.862Z,8.90
2018-02-08T04:52:54.382Z,9.40
2018-02-08T04:53:59.911Z,9.70
2018-02-08T04:55:05.432Z,10.30
2018-02-08T04:56:10.955Z,10.00
2018-02-08T04:57:16.481Z,12.00
2018-02-08T04:58:22.005Z,11.20
2018-02-08T04:59:27.526Z,11.30
2018-02-08T05:00:33.043Z,11.40
2018-02-08T05:01:38.569Z,10.90
2018-02-08T05:02:44.093Z,11.40
2018-02-08T05:03:49.612Z,10.70
2018-02-08T05:04:55.133Z,12.90
2018-02-08T05:06:00.665Z,11.80
2018-02-08T05:07:06.183Z,10.40
2018-02-08T05:08:11.712Z,11.10
2018-02-08T05:09:17.228Z,12.00
2018-02-08T05:10:22.755Z,12.10
2018-02-08T05:11:28.274Z,11.30
2018-02-08T05:12:33.792Z,11.10
2018-02-08T05:13:39.320Z,10.40
2018-02-08T05:14:44.842Z,11.30
2018-02-08T05:15:50.372Z,12.50
2018-02-08T05:16:55.897Z,13.00
2018-02-08T05:18:01.413Z,11.50
2018-02-08T05:19:06.930Z,13.50
2018-02-08T05:20:12.454Z,12.60
2018-02-08T05:21:17.983Z,13.00
2018-02-08T05:22:23.509Z,13.50
2018-02-08T05:23:29.024Z,14.60
2018-02-08T05:24:34.549Z,13.10
2018-02-08T05:25:40.071Z,14.30
2018-02-08T05:26:45.595Z,13.60
2018-02-08T05:27:51.113Z,13.00
2018-02-08T05:28:56.643Z,15.50
2018-02-08T05:30:02.159Z,15.10
2018-02-08T05:31:07.686Z,14.80
2018-02-08T05:32:13.207Z,12.30
2018-02-08T05:33:18.734Z,14.20
2018-02-08T05:34:24.254Z,12.90
2018-02-08T05:35:29.774Z,12.40
2018-02-08T05:36:35.297Z,12.20
2018-02-08T05:37:40.823Z,13.70
2018-02-08T05:38:46.345Z,12.30
2018-02-08T05:39:51.908Z,13.60
2018-02-08T05:40:57.394Z,12.70
2018-02-08T05:42:02.912Z,13.40
2018-02-08T05:43:08.438Z,13.80
2018-02-08T05:44:13.966Z,11.70
2018-02-08T05:45:19.485Z,11.40
2018-02-08T05:46:25.006Z,11.80
2018-02-08T05:47:30.523Z,13.00
2018-02-08T05:48:36.050Z,12.50
2018-02-08T05:49:41.569Z,13.10
2018-02-08T05:50:47.099Z,13.40
2018-02-08T05:51:52.620Z,12.40
2018-02-08T05:52:58.188Z,13.20
2018-02-08T05:54:03.665Z,12.40
2018-02-08T05:55:09.188Z,13.60
2018-02-08T05:56:14.706Z,13.90
2018-02-08T05:57:20.231Z,13.80
2018-02-08T05:58:25.752Z,13.60
2018-02-08T05:59:31.277Z,13.90
2018-02-08T06:00:36.802Z,13.70
2018-02-08T06:01:42.321Z,14.70
2018-02-08T06:02:47.843Z,13.80
2018-02-08T06:03:53.366Z,13.00
2018-02-08T06:04:58.893Z,12.70
2018-02-08T06:06:04.413Z,15.00
2018-02-08T06:07:09.932Z,13.70
2018-02-08T06:08:15.474Z,13.60
2018-02-08T06:09:20.986Z,14.50
2018-02-08T06:10:26.504Z,14.60
2018-02-08T06:11:32.022Z,16.80
2018-02-08T06:12:37.551Z,16.20
2018-02-08T06:13:43.093Z,18.50
2018-02-08T06:14:48.600Z,18.20
2018-02-08T06:15:54.120Z,18.40
2018-02-08T06:16:59.647Z,19.20
2018-02-08T06:18:05.169Z,19.40
2018-02-08T06:19:10.683Z,20.00
2018-02-08T06:20:16.210Z,17.00
2018-02-08T06:21:21.733Z,19.80
2018-02-08T06:22:27.253Z,20.60
2018-02-08T06:23:32.781Z,19.60
2018-02-08T06:24:38.298Z,21.30
2018-02-08T06:25:43.824Z,19.40
2018-02-08T06:26:49.346Z,18.60
2018-02-08T06:27:54.866Z,18.50
2018-02-08T06:29:00.432Z,16.80
2018-02-08T06:30:05.914Z,18.80
2018-02-08T06:31:11.434Z,16.20
2018-02-08T06:32:16.971Z,17.60
2018-02-08T06:33:22.483Z,16.70
2018-02-08T06:34:28.004Z,18.40
2018-02-08T06:35:33.524Z,18.30
2018-02-08T06:36:39.053Z,17.30
2018-02-08T06:37:44.570Z,16.60
2018-02-08T06:38:50.097Z,15.60
2018-02-08T06:39:55.627Z,16.80
2018-02-08T06:41:01.142Z,16.00
2018-02-08T06:42:06.663Z,15.20
2018-02-08T06:43:12.183Z,14.70
2018-02-08T06:44:17.711Z,15.90
2018-02-08T06:45:23.230Z,14.40
2018-02-08T06:46:28.751Z,13.60
2018-02-08T06:47:34.273Z,13.70
2018-02-08T06:48:39.798Z,14.30
2018-02-08T06:49:45.320Z,14.20
2018-02-08T06:50:50.845Z,13.80
2018-02-08T06:51:56.418Z,15.10
2018-02-08T06:53:01.899Z,14.60
2018-02-08T06:54:07.411Z,14.00
2018-02-08T06:55:12.931Z,14.20
2018-02-08T06:56:18.455Z,14.70
2018-02-08T06:57:23.977Z,14.10
2018-02-08T06:58:29.503Z,14.40
2018-02-08T06:59:35.022Z,12.70
2018-02-08T07:00:40.552Z,14.20
2018-02-08T07:01:46.072Z,13.40
2018-02-08T07:02:51.592Z,14.40
2018-02-08T07:03:57.116Z,13.50
2018-02-08T07:05:02.634Z,13.10
2018-02-08T07:06:08.164Z,13.60
2018-02-08T07:07:13.687Z,13.60
2018-02-08T07:08:19.202Z,13.80
2018-02-08T07:09:24.731Z,14.10
2018-02-08T07:10:30.260Z,14.30
2018-02-08T07:11:35.773Z,13.60
2018-02-08T07:12:41.301Z,13.20
2018-02-08T07:13:46.823Z,13.20
2018-02-08T07:14:52.347Z,13.50
2018-02-08T07:15:57.872Z,12.60
2018-02-08T07:17:03.385Z,11.70
2018-02-08T07:18:08.914Z,13.90
2018-02-08T07:19:14.438Z,13.50
2018-02-08T07:20:19.952Z,14.90
2018-02-08T07:21:25.478Z,12.90
2018-02-08T07:22:30.998Z,12.50
2018-02-08T07:23:36.522Z,13.00
2018-02-08T07:24:42.052Z,13.00
2018-02-08T07:25:47.566Z,14.90
2018-02-08T07:26:53.092Z,15.00
2018-02-08T07:27:58.620Z,13.40
2018-02-08T07:29:04.137Z,15.60
2018-02-08T07:30:09.663Z,16.90
2018-02-08T07:31:15.181Z,14.50
2018-02-08T07:32:20.704Z,15.00
2018-02-08T07:33:26.233Z,15.20
2018-02-08T07:34:31.752Z,16.10
2018-02-08T07:35:37.325Z,16.30
2018-02-08T07:36:42.801Z,16.00
2018-02-08T07:37:48.317Z,16.50
2018-02-08T07:38:53.840Z,15.60
2018-02-08T07:39:59.370Z,16.20
2018-02-08T07:41:04.889Z,15.90
2018-02-08T07:42:10.410Z,16.00
2018-02-08T07:43:15.941Z,16.20
2018-02-08T07:44:21.466Z,13.60
2018-02-08T07:45:26.979Z,17.40
2018-02-08T07:46:32.540Z,16.90
2018-02-08T07:47:38.029Z,16.80
2018-02-08T07:48:43.550Z,17.40
2018-02-08T07:49:49.073Z,15.90
2018-02-08T07:50:54.597Z,16.00
2018-02-08T07:52:00.120Z,16.00
2018-02-08T07:54:37.730Z,19.20
2018-02-08T07:55:43.221Z,19.90
2018-02-08T07:56:48.743Z,15.00
2018-02-08T07:57:54.268Z,15.70
2018-02-08T07:58:59.783Z,15.20
2018-02-08T08:00:05.308Z,15.40
2018-02-08T08:01:10.829Z,17.00
2018-02-08T08:02:16.404Z,15.10
2018-02-08T08:03:21.893Z,15.30
2018-02-08T08:04:27.396Z,16.20
2018-02-08T08:05:32.912Z,14.40
2018-02-08T08:06:38.439Z,15.90
2018-02-08T08:07:43.961Z,18.00
2018-02-08T08:08:49.504Z,19.50
2018-02-08T08:09:55.013Z,20.80
2018-02-08T08:11:00.533Z,20.40
2018-02-08T08:12:06.050Z,19.40
2018-02-08T08:13:11.579Z,19.50
2018-02-08T08:14:17.094Z,17.20
2018-02-08T08:15:22.617Z,15.80
2018-02-08T08:16:28.140Z,15.90
2018-02-08T08:17:33.661Z,16.20
2018-02-08T08:18:39.185Z,14.80
2018-02-08T08:19:44.708Z,14.70
2018-02-08T08:20:50.236Z,14.80
2018-02-08T08:21:55.752Z,15.00
2018-02-08T08:23:01.275Z,14.00
2018-02-08T08:24:06.804Z,14.70
2018-02-08T08:25:12.323Z,14.50
2018-02-08T08:26:17.849Z,14.00
2018-02-08T08:27:23.387Z,14.20
2018-02-08T08:28:28.897Z,15.30
2018-02-08T08:29:34.412Z,14.30
2018-02-08T08:30:39.939Z,15.20
2018-02-08T08:31:45.476Z,14.50
2018-02-08T08:32:50.987Z,17.50
2018-02-08T08:33:56.515Z,42.00
2018-02-08T08:35:02.040Z,18.90
2018-02-08T08:36:07.555Z,15.60
2018-02-08T08:37:13.095Z,15.00
2018-02-08T08:38:18.608Z,16.60
2018-02-08T08:39:24.127Z,15.80
2018-02-08T08:40:29.654Z,17.70
2018-02-08T08:41:35.188Z,17.00
2018-02-08T08:42:40.704Z,14.10
2018-02-08T08:43:46.229Z,15.20
2018-02-08T08:44:51.753Z,14.50
2018-02-08T08:45:57.278Z,15.80
2018-02-08T08:47:02.803Z,14.60
2018-02-08T08:48:08.325Z,14.50
2018-02-08T08:49:13.850Z,14.30
2018-02-08T08:50:19.381Z,14.80
2018-02-08T08:51:24.903Z,14.60
2018-02-08T08:52:30.423Z,16.70
2018-02-08T08:53:35.952Z,15.50
2018-02-08T08:54:41.476Z,15.70
2018-02-08T08:55:47.004Z,14.90
2018-02-08T08:56:52.521Z,15.50
2018-02-08T08:57:58.053Z,14.20
2018-02-08T08:59:03.575Z,15.50
2018-02-08T09:00:09.100Z,15.50
2018-02-08T09:01:14.624Z,16.00
2018-02-08T09:02:20.147Z,15.60
2018-02-08T09:03:25.670Z,16.50
2018-02-08T09:04:31.202Z,15.50
2018-02-08T09:05:36.721Z,17.30
2018-02-08T09:06:42.249Z,16.10
2018-02-08T09:07:47.771Z,16.20
2018-02-08T09:08:53.306Z,15.90
2018-02-08T09:09:58.831Z,16.10
2018-02-08T09:11:04.370Z,17.00
2018-02-08T09:12:09.877Z,15.50
2018-02-08T09:13:15.400Z,16.10
2018-02-08T09:14:20.926Z,15.60
2018-02-08T09:15:26.457Z,16.60
2018-02-08T09:16:31.981Z,16.50
2018-02-08T09:17:37.523Z,15.90
2018-02-08T09:18:43.033Z,17.30
2018-02-08T09:19:48.560Z,18.00
2018-02-08T09:20:54.085Z,16.90
2018-02-08T09:21:59.611Z,17.50
2018-02-08T09:23:05.145Z,16.40
2018-02-08T09:24:10.660Z,17.70
2018-02-08T09:25:16.188Z,16.40
2018-02-08T09:26:21.722Z,17.10
2018-02-08T09:27:27.243Z,17.20
2018-02-08T09:28:32.763Z,17.90
2018-02-08T09:29:38.291Z,17.70
2018-02-08T09:30:43.818Z,16.00
2018-02-08T09:31:49.340Z,18.20
2018-02-08T09:32:54.869Z,17.50
2018-02-08T09:34:00.401Z,18.20
2018-02-08T09:35:05.924Z,18.40
2018-02-08T09:36:11.450Z,18.30
2018-02-08T09:37:16.978Z,17.90
2018-02-08T09:38:22.499Z,18.10
2018-02-08T09:39:28.040Z,17.60
2018-02-08T09:42:05.633Z,17.40
2018-02-08T09:43:11.138Z,18.90
2018-02-08T09:44:16.664Z,19.40
2018-02-08T09:45:22.189Z,18.00
2018-02-08T09:46:27.722Z,17.90
2018-02-08T09:47:33.268Z,17.80
2018-02-08T09:48:38.769Z,18.50
2018-02-08T09:49:44.295Z,18.90
2018-02-08T09:50:49.819Z,19.50
2018-02-08T09:51:55.342Z,19.30
2018-02-08T09:53:00.872Z,19.70
2018-02-08T09:54:06.391Z,19.60
2018-02-08T09:55:11.918Z,18.50
2018-02-08T09:56:17.442Z,17.60
2018-02-08T09:57:22.971Z,18.70
2018-02-08T09:58:28.498Z,20.80
2018-02-08T09:59:34.017Z,20.40
2018-02-08T10:00:39.547Z,19.70
2018-02-08T10:01:45.076Z,20.40
2018-02-08T10:02:50.596Z,20.90
2018-02-08T10:03:56.123Z,19.60
2018-02-08T10:05:01.653Z,19.30
2018-02-08T10:06:07.180Z,19.50
2018-02-08T10:07:12.699Z,18.20
2018-02-08T10:08:18.275Z,18.70
2018-02-08T10:09:23.753Z,18.90
2018-02-08T10:10:29.283Z,19.70
2018-02-08T10:11:34.810Z,19.00
2018-02-08T10:12:40.333Z,21.20
2018-02-08T10:13:45.861Z,19.60
2018-02-08T10:14:51.383Z,17.80
2018-02-08T10:15:56.909Z,19.50
2018-02-08T10:17:02.439Z,20.50
2018-02-08T10:18:07.958Z,24.30
2018-02-08T10:19:13.485Z,20.90
2018-02-08T10:20:19.015Z,21.10
2018-02-08T10:21:24.539Z,20.20
2018-02-08T10:22:30.064Z,21.10
2018-02-08T10:23:35.590Z,19.10
2018-02-08T10:24:41.121Z,19.40
2018-02-08T10:25:46.656Z,19.70
2018-02-08T10:26:52.174Z,19.10
2018-02-08T10:27:57.703Z,18.20
2018-02-08T10:29:03.226Z,20.00
2018-02-08T10:30:08.754Z,18.50
2018-02-08T10:31:14.279Z,18.10
2018-02-08T10:32:19.810Z,18.50
2018-02-08T10:33:25.338Z,18.80
2018-02-08T10:34:30.869Z,18.70
2018-02-08T10:35:36.393Z,17.80
2018-02-08T10:36:41.924Z,18.60
2018-02-08T10:37:47.453Z,19.60
2018-02-08T10:38:52.976Z,18.70
2018-02-08T10:39:58.505Z,19.40
2018-02-08T10:41:04.081Z,18.50
2018-02-08T10:42:09.560Z,19.70
2018-02-08T10:43:15.086Z,18.20
2018-02-08T10:44:20.613Z,18.10
2018-02-08T10:45:26.141Z,19.00
2018-02-08T10:46:31.671Z,17.20
2018-02-08T10:47:37.198Z,19.30
2018-02-08T10:48:42.728Z,17.80
2018-02-08T10:49:48.254Z,19.00
2018-02-08T10:50:53.794Z,17.60
2018-02-08T10:51:59.312Z,17.90
2018-02-08T10:53:04.837Z,17.40
2018-02-08T10:54:10.365Z,17.20
2018-02-08T10:55:15.897Z,18.40
2018-02-08T10:56:21.418Z,19.00
2018-02-08T10:57:26.946Z,16.10
2018-02-08T10:58:32.484Z,17.30
2018-02-08T10:59:38.004Z,17.90
2018-02-08T11:00:43.531Z,18.60
2018-02-08T11:01:49.057Z,17.50
2018-02-08T11:02:54.591Z,16.80
2018-02-08T11:04:00.113Z,17.40
2018-02-08T11:05:05.643Z,17.20
2018-02-08T11:06:11.174Z,16.00
2018-02-08T11:07:16.698Z,16.20
2018-02-08T11:08:22.225Z,17.70
2018-02-08T11:09:27.756Z,16.90
2018-02-08T11:10:33.296Z,15.80
2018-02-08T11:11:38.810Z,17.10
2018-02-08T11:12:44.344Z,17.30
2018-02-08T11:13:49.875Z,15.50
2018-02-08T11:14:55.403Z,16.20
2018-02-08T11:16:00.933Z,15.30
2018-02-08T11:17:06.459Z,15.20
2018-02-08T11:18:11.987Z,15.90
2018-02-08T11:19:17.513Z,15.80
2018-02-08T11:20:23.044Z,14.50
2018-02-08T11:21:28.568Z,16.80
2018-02-08T11:22:34.101Z,16.20
2018-02-08T11:23:39.631Z,16.50
2018-02-08T11:24:45.154Z,15.00
2018-02-08T11:25:50.683Z,15.50
2018-02-08T11:26:56.212Z,15.40
2018-02-08T11:28:01.742Z,14.20
2018-02-08T11:29:07.271Z,14.50
2018-02-08T11:30:12.796Z,13.80
2018-02-08T11:31:18.329Z,14.60
2018-02-08T11:32:23.857Z,14.50
2018-02-08T11:33:29.403Z,14.70
2018-02-08T11:34:34.913Z,14.40
2018-02-08T11:35:40.439Z,15.60
2018-02-08T11:36:45.980Z,15.40
2018-02-08T11:37:51.503Z,15.10
2018-02-08T11:38:57.036Z,14.40
2018-02-08T11:40:02.560Z,14.30
2018-02-08T11:41:08.090Z,13.40
2018-02-08T11:42:13.618Z,13.50
2018-02-08T11:43:19.147Z,13.10
2018-02-08T11:44:24.672Z,11.50
2018-02-08T11:45:30.201Z,12.80
2018-02-08T11:46:35.731Z,12.60
2018-02-08T11:47:41.274Z,12.90
2018-02-08T11:48:46.803Z,13.70
2018-02-08T11:49:52.317Z,14.80
2018-02-08T11:50:57.850Z,15.20
2018-02-08T11:52:03.382Z,14.70
2018-02-08T11:53:08.909Z,15.70
2018-02-08T11:54:14.435Z,13.80
2018-02-08T11:55:19.970Z,15.30
2018-02-08T11:56:25.494Z,15.40
2018-02-08T11:57:31.026Z,15.00
2018-02-08T11:58:36.550Z,16.10
2018-02-08T11:59:42.085Z,15.40
2018-02-08T12:00:47.614Z,16.10
2018-02-08T12:01:53.142Z,15.40
2018-02-08T12:02:58.683Z,16.30
2018-02-08T12:04:04.200Z,17.60
2018-02-08T12:05:09.729Z,16.60
2018-02-08T12:06:15.265Z,17.00
2018-02-08T12:07:20.789Z,15.60
2018-02-08T12:08:26.314Z,16.90
2018-02-08T12:09:31.841Z,18.00
2018-02-08T12:10:37.390Z,16.30
2018-02-08T12:11:42.912Z,18.30
2018-02-08T12:12:48.431Z,18.80
2018-02-08T12:13:53.967Z,18.10
2018-02-08T12:14:59.488Z,17.90
2018-02-08T12:16:05.018Z,17.20
2018-02-08T12:17:10.548Z,18.40
2018-02-08T12:18:16.081Z,18.10
2018-02-08T12:19:21.608Z,17.40
2018-02-08T12:20:27.140Z,17.60
2018-02-08T12:21:32.665Z,17.90
2018-02-08T12:22:38.198Z,18.30
2018-02-08T12:23:43.731Z,16.80
2018-02-08T12:24:49.254Z,17.80
2018-02-08T12:25:54.781Z,17.30
2018-02-08T12:27:00.317Z,16.80
2018-02-08T12:28:05.844Z,16.50
2018-02-08T12:29:11.370Z,17.50
2018-02-08T12:30:16.906Z,17.30
2018-02-08T12:31:22.435Z,17.20
2018-02-08T12:32:27.962Z,16.70
2018-02-08T12:33:33.498Z,25.00
2018-02-08T12:34:39.021Z,18.70
2018-02-08T12:35:44.552Z,18.50
2018-02-08T12:36:50.081Z,17.60
2018-02-08T12:37:55.607Z,17.00
2018-02-08T12:39:01.136Z,16.20
2018-02-08T12:40:06.673Z,18.20
2018-02-08T12:41:12.201Z,17.10
2018-02-08T12:42:17.724Z,16.10
2018-02-08T12:43:23.254Z,16.00
2018-02-08T12:44:28.787Z,17.50
2018-02-08T12:45:34.319Z,17.00
2018-02-08T12:46:39.850Z,16.90
2018-02-08T12:47:45.375Z,18.00
2018-02-08T12:48:50.905Z,17.30
2018-02-08T12:49:56.434Z,17.90
2018-02-08T12:51:01.964Z,16.10
2018-02-08T12:52:07.492Z,17.30
2018-02-08T12:53:13.023Z,17.10
2018-02-08T12:54:18.553Z,17.20
2018-02-08T12:55:24.083Z,16.20
2018-02-08T12:56:29.612Z,16.00
2018-02-08T12:57:35.140Z,15.50
2018-02-08T12:58:40.672Z,16.30
2018-02-08T12:59:46.204Z,17.30
2018-02-08T13:00:51.734Z,18.10
2018-02-08T13:01:57.264Z,21.10
2018-02-08T13:03:02.792Z,21.60
2018-02-08T13:04:08.324Z,20.10
2018-02-08T13:05:13.855Z,18.40
2018-02-08T13:06:19.382Z,19.80
2018-02-08T13:07:24.912Z,20.50
2018-02-08T13:08:30.443Z,19.70
2018-02-08T13:09:35.980Z,20.30
2018-02-08T13:10:41.502Z,23.40
2018-02-08T13:11:47.031Z,19.10
2018-02-08T13:12:52.564Z,18.50
2018-02-08T13:13:58.095Z,18.50
2018-02-08T13:15:03.623Z,19.30
2018-02-08T13:16:09.158Z,19.10
2018-02-08T13:17:14.681Z,19.60
2018-02-08T13:18:20.215Z,19.10
2018-02-08T13:19:25.742Z,19.80
2018-02-08T13:20:31.273Z,20.30
2018-02-08T13:21:36.803Z,20.10
2018-02-08T13:22:42.330Z,20.50
2018-02-08T13:23:47.862Z,20.90
2018-02-08T13:24:53.393Z,21.60
2018-02-08T13:25:58.924Z,21.70
2018-02-08T13:27:04.452Z,21.10
2018-02-08T13:28:09.985Z,21.30
2018-02-08T13:29:15.594Z,21.60
2018-02-08T13:30:21.059Z,23.60
2018-02-08T13:31:26.571Z,23.60
2018-02-08T13:32:32.113Z,23.60
2018-02-08T13:33:37.632Z,24.80
2018-02-08T13:34:43.166Z,23.90
2018-02-08T13:35:48.698Z,21.70
2018-02-08T13:36:54.221Z,24.20
2018-02-08T13:37:59.753Z,23.10
2018-02-08T13:39:05.283Z,21.60
2018-02-08T13:40:10.820Z,22.60
2018-02-08T13:41:16.343Z,24.10
2018-02-08T13:42:21.884Z,23.50
2018-02-08T13:43:27.409Z,21.30
2018-02-08T13:44:32.933Z,24.10
2018-02-08T13:45:38.466Z,23.60
2018-02-08T13:46:43.998Z,24.60
2018-02-08T13:47:49.525Z,25.70
2018-02-08T13:48:55.055Z,26.00
2018-02-08T13:50:00.583Z,24.70
2018-02-08T13:51:06.117Z,24.10
2018-02-08T13:52:11.649Z,24.50
2018-02-08T13:53:17.174Z,24.80
2018-02-08T13:54:22.705Z,20.20
2018-02-08T13:55:28.235Z,30.30
2018-02-08T13:56:33.764Z,38.40
2018-02-08T13:57:39.354Z,31.00
2018-02-08T13:58:44.824Z,25.60
2018-02-08T13:59:50.353Z,26.40
2018-02-08T14:00:55.980Z,26.40
2018-02-08T14:02:01.413Z,33.20
2018-02-08T14:03:06.943Z,27.40
2018-02-08T14:04:12.474Z,27.50
2018-02-08T14:05:18.008Z,26.90
2018-02-08T14:06:23.532Z,26.70
2018-02-08T14:07:29.061Z,23.20
2018-02-08T14:08:34.592Z,25.50
2018-02-08T14:09:40.123Z,23.00
2018-02-08T14:10:45.657Z,25.10
2018-02-08T14:11:51.184Z,27.70
2018-02-08T14:12:56.711Z,24.40
2018-02-08T14:14:02.239Z,25.20
2018-02-08T14:15:07.772Z,25.20